createdAt,value
2022-11-24T00:00:58.251Z,97927.60
2022-11-24T00:03:55.925Z,97931.00
2022-11-24T00:06:54.431Z,97929.00
2022-11-24T00:09:51.931Z,97937.20
2022-11-24T00:12:49.431Z,97944.40
2022-11-24T00:15:46.921Z,97948.20
2022-11-24T00:18:44.455Z,97952.40
2022-11-24T00:21:41.971Z,97959.20
2022-11-24T00:24:39.468Z,97956.20
2022-11-24T00:27:36.960Z,97957.60
2022-11-24T00:30:35.034Z,97958.00
2022-11-24T00:33:32.589Z,97962.60
2022-11-24T00:36:30.166Z,97966.00
2022-11-24T00:39:27.688Z,97967.60
2022-11-24T00:42:25.198Z,97973.00
2022-11-24T00:45:22.700Z,97971.60
2022-11-24T00:48:20.236Z,97977.40
2022-11-24T00:51:17.719Z,97982.60
2022-11-24T00:54:15.207Z,97982.80
2022-11-24T00:57:12.733Z,97991.60
2022-11-24T01:00:10.233Z,97989.60
2022-11-24T01:03:07.741Z,98003.80
2022-11-24T01:06:05.458Z,98001.80
2022-11-24T01:09:02.964Z,98004.20
2022-11-24T01:12:04.239Z,98004.80
2022-11-24T01:15:01.862Z,98003.60
2022-11-24T01:17:59.404Z,98002.80
2022-11-24T01:20:56.923Z,98011.20
2022-11-24T01:23:54.438Z,98006.40
2022-11-24T01:26:51.930Z,98022.40
2022-11-24T01:29:49.423Z,98015.20
2022-11-24T01:32:46.950Z,98019.40
2022-11-24T01:35:44.455Z,98018.00
2022-11-24T01:38:41.978Z,98026.20
2022-11-24T01:41:39.466Z,98033.00
2022-11-24T01:44:37.173Z,98036.20
2022-11-24T01:47:34.734Z,98041.40
2022-11-24T01:50:32.348Z,98042.80
2022-11-24T01:53:29.861Z,98043.00
2022-11-24T01:56:27.365Z,98050.00
2022-11-24T01:59:24.888Z,98049.60
2022-11-24T02:02:22.450Z,98046.60
2022-11-24T02:05:20.006Z,98044.40
2022-11-24T02:08:17.490Z,98047.60
2022-11-24T02:11:15.001Z,98051.80
2022-11-24T02:14:12.915Z,98048.40
2022-11-24T02:17:10.420Z,98052.40
2022-11-24T02:20:07.978Z,98047.20
2022-11-24T02:23:05.470Z,98041.40
2022-11-24T02:26:02.976Z,98040.40
2022-11-24T02:29:00.493Z,98040.20
2022-11-24T02:31:59.115Z,98039.60
2022-11-24T02:34:56.622Z,98043.40
2022-11-24T02:37:54.116Z,98042.20
2022-11-24T02:40:51.638Z,98043.80
2022-11-24T02:43:49.144Z,98042.80
2022-11-24T02:46:46.703Z,98039.00
2022-11-24T02:49:44.199Z,98040.40
2022-11-24T02:52:41.684Z,98044.40
2022-11-24T02:55:39.181Z,98040.60
2022-11-24T02:58:37.164Z,98037.20
2022-11-24T03:01:34.723Z,98037.80
2022-11-24T03:04:32.613Z,98042.00
2022-11-24T03:07:30.373Z,98038.00
2022-11-24T03:10:28.627Z,98040.00
2022-11-24T03:13:26.118Z,98045.00
2022-11-24T03:16:23.656Z,98037.60
2022-11-24T03:19:21.241Z,98045.00
2022-11-24T03:22:18.754Z,98045.80
2022-11-24T03:25:16.263Z,98047.00
2022-11-24T03:28:13.740Z,98043.80
2022-11-24T03:31:11.272Z,98042.00
2022-11-24T03:34:08.774Z,98042.60
2022-11-24T03:37:06.261Z,98046.80
2022-11-24T03:40:03.758Z,98048.60
2022-11-24T03:43:01.293Z,98056.60
2022-11-24T03:45:58.854Z,98060.00
2022-11-24T03:48:56.351Z,98061.20
2022-11-24T03:51:53.868Z,98065.60
2022-11-24T03:54:51.352Z,98061.40
2022-11-24T03:57:49.056Z,98064.40
2022-11-24T04:00:46.578Z,98069.80
2022-11-24T04:03:44.083Z,98071.20
2022-11-24T04:06:41.584Z,98080.00
2022-11-24T04:09:39.087Z,98070.80
2022-11-24T04:12:45.664Z,98072.80
2022-11-24T04:15:43.241Z,98082.00
2022-11-24T04:18:40.794Z,98084.20
2022-11-24T04:21:38.299Z,98081.40
2022-11-24T04:24:36.118Z,98087.00
2022-11-24T04:27:33.836Z,98096.00
2022-11-24T04:30:31.340Z,98100.00
2022-11-24T04:33:28.905Z,98099.20
2022-11-24T04:36:26.399Z,98109.80
2022-11-24T04:39:28.821Z,98117.20
2022-11-24T04:42:26.549Z,98126.20
2022-11-24T04:45:24.059Z,98120.40
2022-11-24T04:48:21.571Z,98127.00
2022-11-24T04:51:19.091Z,98123.60
2022-11-24T04:54:16.571Z,98140.60
2022-11-24T04:57:14.074Z,98146.20
2022-11-24T05:00:11.634Z,98150.80
2022-11-24T05:03:09.146Z,98152.20
2022-11-24T05:06:06.644Z,98154.40
2022-11-24T05:09:04.117Z,98151.20
2022-11-24T05:12:01.578Z,98153.60
2022-11-24T05:14:59.461Z,98149.80
2022-11-24T05:17:57.196Z,98152.20
2022-11-24T05:20:55.023Z,98148.60
2022-11-24T05:23:52.475Z,98154.00
2022-11-24T05:26:49.917Z,98157.60
2022-11-24T05:29:47.370Z,98158.20
2022-11-24T05:32:45.300Z,98156.40
2022-11-24T05:35:42.757Z,98159.40
2022-11-24T05:38:40.207Z,98162.60
2022-11-24T05:41:37.671Z,98170.20
2022-11-24T05:44:35.421Z,98164.40
2022-11-24T05:47:33.148Z,98172.00
2022-11-24T05:50:30.606Z,98168.40
2022-11-24T05:53:28.077Z,98179.80
2022-11-24T05:56:25.517Z,98180.60
2022-11-24T05:59:23.095Z,98191.40
2022-11-24T06:02:21.694Z,98196.20
2022-11-24T06:05:19.192Z,98200.40
2022-11-24T06:08:16.673Z,98207.60
2022-11-24T06:11:20.342Z,98216.60
2022-11-24T06:14:17.817Z,98218.40
2022-11-24T06:17:15.276Z,98224.40
2022-11-24T06:20:12.760Z,98226.60
2022-11-24T06:23:10.220Z,98223.80
2022-11-24T06:26:07.662Z,98230.20
2022-11-24T06:29:05.136Z,98232.60
2022-11-24T06:32:02.732Z,98231.80
2022-11-24T06:35:00.223Z,98246.00
2022-11-24T06:37:57.676Z,98246.00
2022-11-24T06:40:55.136Z,98242.00
2022-11-24T06:43:52.601Z,98249.80
2022-11-24T06:46:50.043Z,98253.00
2022-11-24T06:49:47.512Z,98254.00
2022-11-24T06:52:44.949Z,98251.60
2022-11-24T06:55:42.424Z,98253.80
2022-11-24T06:58:39.896Z,98255.40
2022-11-24T07:01:37.695Z,98262.80
2022-11-24T07:04:35.348Z,98264.40
2022-11-24T07:07:33.016Z,98271.60
2022-11-24T07:10:30.509Z,98280.60
2022-11-24T07:13:27.976Z,98289.00
2022-11-24T07:16:25.503Z,98291.40
2022-11-24T07:19:25.048Z,98295.80
2022-11-24T07:22:23.982Z,98300.00
2022-11-24T07:25:21.471Z,98305.00
2022-11-24T07:28:18.942Z,98308.00
2022-11-24T07:31:16.450Z,98309.00
2022-11-24T07:34:14.941Z,98309.20
2022-11-24T07:37:12.484Z,98310.00
2022-11-24T07:40:09.956Z,98311.00
2022-11-24T07:43:07.425Z,98321.20
2022-11-24T07:46:04.964Z,98326.80
2022-11-24T07:49:02.555Z,98323.20
2022-11-24T07:52:00.921Z,98326.60
2022-11-24T07:54:58.461Z,98331.80
2022-11-24T07:57:55.935Z,98332.80
2022-11-24T08:00:53.415Z,98333.60
2022-11-24T08:03:51.005Z,98337.00
2022-11-24T08:06:48.633Z,98338.40
2022-11-24T08:09:46.116Z,98348.20
2022-11-24T08:12:45.297Z,98347.40
2022-11-24T08:15:42.744Z,98344.60
2022-11-24T08:18:40.191Z,98351.20
2022-11-24T08:21:38.057Z,98349.00
2022-11-24T08:24:35.781Z,98352.00
2022-11-24T08:27:33.505Z,98356.20
2022-11-24T08:30:30.997Z,98360.40
2022-11-24T08:33:28.454Z,98359.40
2022-11-24T08:36:25.925Z,98358.80
2022-11-24T08:39:23.444Z,98360.60
2022-11-24T08:42:21.937Z,98369.00
2022-11-24T08:45:21.263Z,98373.80
2022-11-24T08:48:19.523Z,98375.60
2022-11-24T08:51:17.034Z,98382.20
2022-11-24T08:54:15.546Z,98382.60
2022-11-24T08:57:17.202Z,98383.40
2022-11-24T09:00:22.994Z,98380.00
2022-11-24T09:03:20.627Z,98386.20
2022-11-24T09:06:18.089Z,98382.60
2022-11-24T09:09:15.557Z,98379.80
2022-11-24T09:12:14.693Z,98382.80
2022-11-24T09:15:12.490Z,98382.40
2022-11-24T09:18:09.927Z,98392.40
2022-11-24T09:21:19.729Z,98391.60
2022-11-24T09:24:17.631Z,98387.60
2022-11-24T09:27:15.084Z,98385.80
2022-11-24T09:30:12.531Z,98386.20
2022-11-24T09:33:09.989Z,98386.20
2022-11-24T09:36:07.436Z,98387.00
2022-11-24T09:39:04.881Z,98390.60
2022-11-24T09:42:02.352Z,98384.00
2022-11-24T09:44:59.836Z,98382.20
2022-11-24T09:47:57.340Z,98384.80
2022-11-24T09:50:54.793Z,98386.80
2022-11-24T09:53:52.277Z,98392.60
2022-11-24T09:56:51.410Z,98394.00
2022-11-24T09:59:48.868Z,98393.60
2022-11-24T10:02:46.321Z,98396.80
2022-11-24T10:05:43.762Z,98394.00
2022-11-24T10:08:41.223Z,98396.40
2022-11-24T10:11:38.816Z,98395.80
2022-11-24T10:14:36.307Z,98388.40
2022-11-24T10:17:33.754Z,98378.80
2022-11-24T10:20:31.227Z,98387.60
2022-11-24T10:23:28.691Z,98385.00
2022-11-24T10:26:26.145Z,98384.20
2022-11-24T10:29:23.595Z,98381.60
2022-11-24T10:32:21.122Z,98380.20
2022-11-24T10:35:18.584Z,98380.20
2022-11-24T10:38:16.075Z,98393.40
2022-11-24T10:41:13.522Z,98388.40
2022-11-24T10:44:10.986Z,98396.40
2022-11-24T10:47:08.438Z,98394.60
2022-11-24T10:50:05.909Z,98400.60
2022-11-24T10:53:03.365Z,98396.40
2022-11-24T10:56:00.912Z,98397.00
2022-11-24T10:58:58.381Z,98399.20
2022-11-24T11:01:55.946Z,98400.60
2022-11-24T11:04:53.576Z,98392.60
2022-11-24T11:07:51.194Z,98397.20
2022-11-24T11:10:48.726Z,98399.60
2022-11-24T11:13:51.105Z,98401.20
2022-11-24T11:16:49.337Z,98395.80
2022-11-24T11:19:49.321Z,98399.40
2022-11-24T11:22:47.411Z,98393.40
2022-11-24T11:25:44.874Z,98391.60
2022-11-24T11:28:42.337Z,98391.60
2022-11-24T11:31:39.834Z,98397.20
2022-11-24T11:34:37.752Z,98395.60
2022-11-24T11:37:35.449Z,98396.20
2022-11-24T11:40:32.942Z,98395.40
2022-11-24T11:43:30.419Z,98398.40
2022-11-24T11:46:27.961Z,98394.00
2022-11-24T11:49:25.452Z,98399.00
2022-11-24T11:55:37.858Z,98402.40
2022-11-24T11:58:35.306Z,98407.40
2022-11-24T12:01:32.787Z,98408.60
2022-11-24T12:04:30.246Z,98411.00
2022-11-24T12:07:27.742Z,98399.20
2022-11-24T12:10:25.287Z,98404.60
2022-11-24T12:13:22.737Z,98403.20
2022-11-24T12:16:20.235Z,98404.80
2022-11-24T12:19:17.762Z,98405.60
2022-11-24T12:22:15.222Z,98396.20
2022-11-24T12:25:12.690Z,98398.00
2022-11-24T12:28:10.152Z,98399.20
2022-11-24T12:31:08.860Z,98401.80
2022-11-24T12:34:06.381Z,98399.80
2022-11-24T12:37:04.117Z,98404.80
2022-11-24T12:40:01.570Z,98409.60
2022-11-24T12:42:59.030Z,98409.80
2022-11-24T12:45:56.477Z,98411.60
2022-11-24T12:48:53.967Z,98405.80
2022-11-24T12:51:51.697Z,98415.60
2022-11-24T12:54:49.136Z,98427.80
2022-11-24T12:57:46.583Z,98426.00
2022-11-24T13:00:44.122Z,98417.00
2022-11-24T13:03:41.571Z,98418.20
2022-11-24T13:06:41.038Z,98418.80
2022-11-24T13:09:40.647Z,98421.00
2022-11-24T13:12:38.081Z,98422.60
2022-11-24T13:15:46.047Z,98421.20
2022-11-24T13:18:47.519Z,98420.40
2022-11-24T13:21:45.773Z,98421.40
2022-11-24T13:24:44.954Z,98423.20
2022-11-24T13:27:42.819Z,98427.20
2022-11-24T13:30:40.279Z,98428.40
2022-11-24T13:33:37.748Z,98429.80
2022-11-24T13:36:35.258Z,98433.00
2022-11-24T13:39:36.024Z,98430.80
2022-11-24T13:42:43.600Z,98434.20
2022-11-24T13:45:42.632Z,98430.20
2022-11-24T13:48:40.085Z,98435.80
2022-11-24T13:51:37.568Z,98443.80
2022-11-24T13:54:35.235Z,98450.00
2022-11-24T13:57:32.939Z,98453.00
2022-11-24T14:00:31.015Z,98455.40
2022-11-24T14:03:28.926Z,98449.60
2022-11-24T14:06:26.423Z,98460.80
2022-11-24T14:09:23.928Z,98450.40
2022-11-24T14:12:22.437Z,98459.80
2022-11-24T14:15:19.879Z,98456.80
2022-11-24T14:18:17.334Z,98456.40
2022-11-24T14:21:14.799Z,98462.20
2022-11-24T14:24:12.253Z,98465.40
2022-11-24T14:27:09.906Z,98474.00
2022-11-24T14:30:07.373Z,98472.20
2022-11-24T14:33:04.837Z,98486.40
2022-11-24T14:36:02.310Z,98485.20
2022-11-24T14:38:59.765Z,98493.40
2022-11-24T14:41:57.261Z,98485.80
2022-11-24T14:44:55.759Z,98499.60
2022-11-24T14:47:53.235Z,98487.60
2022-11-24T14:50:50.697Z,98483.60
2022-11-24T14:53:48.186Z,98484.00
2022-11-24T14:56:45.913Z,98488.20
2022-11-24T14:59:43.538Z,98484.60
2022-11-24T15:02:41.373Z,98489.40
2022-11-24T15:05:38.901Z,98488.60
2022-11-24T15:08:36.509Z,98495.20
2022-11-24T15:11:33.985Z,98500.80
2022-11-24T15:14:31.631Z,98500.60
2022-11-24T15:17:29.391Z,98505.00
2022-11-24T15:20:26.870Z,98512.20
2022-11-24T15:23:24.447Z,98520.60
2022-11-24T15:26:25.959Z,98527.20
2022-11-24T15:29:26.698Z,98523.40
2022-11-24T15:32:24.528Z,98526.20
2022-11-24T15:35:22.953Z,98529.60
2022-11-24T15:38:20.457Z,98529.40
2022-11-24T15:41:18.265Z,98531.40
2022-11-24T15:44:15.768Z,98531.40
2022-11-24T15:47:13.330Z,98531.80
2022-11-24T15:50:10.807Z,98529.20
2022-11-24T15:53:08.255Z,98531.00
2022-11-24T15:56:05.700Z,98527.80
2022-11-24T15:59:03.193Z,98526.40
2022-11-24T16:02:00.651Z,98531.20
2022-11-24T16:04:58.183Z,98527.80
2022-11-24T16:07:55.730Z,98536.00
2022-11-24T16:10:53.283Z,98542.40
2022-11-24T16:13:53.301Z,98554.60
2022-11-24T16:16:51.208Z,98558.40
2022-11-24T16:19:59.835Z,98569.80
2022-11-24T16:22:58.462Z,98582.00
2022-11-24T16:25:55.928Z,98575.20
2022-11-24T16:28:53.376Z,98580.40
2022-11-24T16:31:51.403Z,98587.60
2022-11-24T16:34:49.466Z,98588.80
2022-11-24T16:37:46.901Z,98592.60
2022-11-24T16:40:45.416Z,98591.40
2022-11-24T16:43:43.277Z,98595.40
2022-11-24T16:46:41.181Z,98595.80
2022-11-24T16:49:39.541Z,98606.80
2022-11-24T16:52:37.279Z,98610.80
2022-11-24T16:55:34.801Z,98623.40
2022-11-24T16:58:32.888Z,98625.60
2022-11-24T17:01:31.230Z,98624.00
2022-11-24T17:04:29.026Z,98625.40
2022-11-24T17:07:26.665Z,98633.00
2022-11-24T17:10:25.167Z,98635.60
2022-11-24T17:13:29.987Z,98642.00
2022-11-24T17:16:28.450Z,98642.80
2022-11-24T17:19:26.428Z,98647.40
2022-11-24T17:22:24.018Z,98648.00
2022-11-24T17:25:23.010Z,98652.00
2022-11-24T17:28:20.550Z,98651.80
2022-11-24T17:31:20.325Z,98653.00
2022-11-24T17:34:18.767Z,98656.40
2022-11-24T17:37:16.570Z,98657.60
2022-11-24T17:40:34.568Z,98664.00
2022-11-24T17:43:33.264Z,98664.80
2022-11-24T17:46:31.595Z,98671.40
2022-11-24T17:49:30.028Z,98670.20
2022-11-24T17:52:28.716Z,98673.20
2022-11-24T17:55:26.683Z,98672.20
2022-11-24T17:58:24.407Z,98669.80
2022-11-24T18:01:22.728Z,98676.20
2022-11-24T18:04:24.146Z,98681.40
2022-11-24T18:07:21.905Z,98673.60
2022-11-24T18:10:20.093Z,98678.40
2022-11-24T18:13:34.203Z,98678.60
2022-11-24T18:16:36.611Z,98690.20
2022-11-24T18:19:34.155Z,98693.00
2022-11-24T18:23:03.820Z,98695.20
2022-11-24T18:25:52.862Z,98699.00
2022-11-24T18:28:51.342Z,98691.60
2022-11-24T18:31:49.909Z,98693.00
2022-11-24T18:34:50.694Z,98692.40
2022-11-24T18:37:49.628Z,98697.20
2022-11-24T18:40:47.633Z,98695.60
2022-11-24T18:43:46.939Z,98692.20
2022-11-24T18:46:46.030Z,98697.00
2022-11-24T18:49:44.751Z,98703.60
2022-11-24T18:52:43.271Z,98702.80
2022-11-24T18:55:42.023Z,98711.20
2022-11-24T18:58:40.044Z,98708.00
2022-11-24T19:01:40.276Z,98713.60
2022-11-24T19:04:39.316Z,98709.00
2022-11-24T19:07:39.294Z,98706.00
2022-11-24T19:10:38.665Z,98709.80
2022-11-24T19:13:37.428Z,98711.80
2022-11-24T19:16:37.762Z,98712.00
2022-11-24T19:19:37.234Z,98714.60
2022-11-24T19:22:36.249Z,98720.40
2022-11-24T19:25:35.156Z,98722.00
2022-11-24T19:28:34.035Z,98722.00
2022-11-24T19:31:36.661Z,98719.60
2022-11-24T19:34:36.468Z,98719.80
2022-11-24T19:37:35.168Z,98720.60
2022-11-24T19:40:33.309Z,98734.00
2022-11-24T19:43:32.093Z,98740.40
2022-11-24T19:46:34.597Z,98737.00
2022-11-24T19:49:33.549Z,98743.20
2022-11-24T19:52:32.228Z,98743.60
2022-11-24T19:55:31.150Z,98745.40
2022-11-24T19:58:34.548Z,98745.80
2022-11-24T20:01:33.696Z,98757.80
2022-11-24T20:04:39.135Z,98757.00
2022-11-24T20:07:37.198Z,98759.40
2022-11-24T20:10:37.697Z,98754.60
2022-11-24T20:13:36.470Z,98755.20
2022-11-24T20:16:34.730Z,98759.20
2022-11-24T20:19:33.449Z,98766.40
2022-11-24T20:22:32.849Z,98768.60
2022-11-24T20:25:34.156Z,98768.20
2022-11-24T20:28:32.870Z,98766.00
2022-11-24T20:31:30.978Z,98772.60
2022-11-24T20:34:30.562Z,98776.00
2022-11-24T20:40:48.081Z,98776.20
2022-11-24T20:43:46.817Z,98779.00
2022-11-24T20:46:45.811Z,98783.80
2022-11-24T20:49:44.328Z,98778.20
2022-11-24T20:52:42.886Z,98788.00
2022-11-24T20:55:41.358Z,98789.60
2022-11-24T20:58:39.737Z,98784.80
2022-11-24T21:01:39.000Z,98797.00
2022-11-24T21:04:37.304Z,98794.40
2022-11-24T21:07:35.700Z,98802.00
2022-11-24T21:10:33.634Z,98807.40
2022-11-24T21:13:31.331Z,98808.40
2022-11-24T21:16:29.467Z,98805.60
2022-11-24T21:19:28.104Z,98813.40
2022-11-24T21:22:26.792Z,98816.60
2022-11-24T21:25:24.383Z,98812.20
2022-11-24T21:28:22.337Z,98814.80
2022-11-24T21:31:21.787Z,98813.80
2022-11-24T21:34:19.586Z,98813.60
2022-11-24T21:37:17.139Z,98816.00
2022-11-24T21:40:15.777Z,98821.20
2022-11-24T21:43:13.267Z,98833.40
2022-11-24T21:46:11.223Z,98828.20
2022-11-24T21:49:08.748Z,98838.20
2022-11-24T21:52:06.204Z,98839.40
2022-11-24T21:55:03.694Z,98839.80
2022-11-24T21:58:01.161Z,98843.80
2022-11-24T22:00:58.710Z,98842.20
2022-11-24T22:03:56.206Z,98844.40
2022-11-24T22:06:53.712Z,98853.20
2022-11-24T22:09:51.171Z,98854.60
2022-11-24T22:12:48.625Z,98857.40
2022-11-24T22:15:46.104Z,98853.20
2022-11-24T22:18:43.563Z,98859.20
2022-11-24T22:21:40.998Z,98862.00
2022-11-24T22:24:38.644Z,98866.00
2022-11-24T22:27:36.363Z,98871.40
2022-11-24T22:30:33.822Z,98871.00
2022-11-24T22:33:31.262Z,98875.60
2022-11-24T22:36:28.708Z,98875.40
2022-11-24T22:39:26.167Z,98878.00
2022-11-24T22:42:23.626Z,98876.20
2022-11-24T22:45:21.090Z,98881.00
2022-11-24T22:48:18.527Z,98884.40
2022-11-24T22:51:15.993Z,98894.00
2022-11-24T22:54:13.642Z,98894.80
2022-11-24T22:57:11.110Z,98892.60
2022-11-24T23:00:08.591Z,98890.40
2022-11-24T23:03:06.111Z,98895.00
2022-11-24T23:06:03.596Z,98893.00
2022-11-24T23:09:01.097Z,98893.40
2022-11-24T23:11:58.547Z,98890.00
2022-11-24T23:14:56.015Z,98886.80
2022-11-24T23:17:53.462Z,98877.00
2022-11-24T23:20:50.905Z,98885.20
2022-11-24T23:23:48.345Z,98884.40
2022-11-24T23:26:45.803Z,98885.20
2022-11-24T23:29:43.263Z,98886.20
2022-11-24T23:32:40.744Z,98883.40
2022-11-24T23:35:38.214Z,98884.80
2022-11-24T23:38:35.645Z,98883.40
2022-11-24T23:41:33.144Z,98882.60
2022-11-24T23:44:30.634Z,98883.40
2022-11-24T23:47:28.085Z,98885.60
2022-11-24T23:50:25.532Z,98894.60
2022-11-24T23:53:22.988Z,98890.40
2022-11-24T23:56:20.424Z,98889.20
2022-11-24T23:59:19.849Z,98892.20
